Ride Results

Sussex Inlet Charity (03-07-2011)
Ride distance: 80.0 km

Outcomes - Sussex Inlet Charity (03-07-2011)
Division No. of Entries Retired / DNE Completed Withdrawn Ineligible V/O Percentage Completed
HW 8 - 6 2 - - 75.00%
MW 15 - 13 - - 2 86.67%
LW 12 - 10 2 - - 83.33%
JN 3 - 2 - - 1 66.67%
Totals 38 - 31 4 - 3 81.58%
Results - Sussex Inlet Charity (03-07-2011)
No. Rider Horse Place Time Leg Speeds Total
Km/Hr
H/R bpm
Heavyweight
108 Marty Moran Glenduearte Desert Storm 1 (BC) 5:03:00 17.1, 14.7 15.84 41, 42, 43 (Avg:42)
14 Ray Spence Starr Shine 2 5:12:00 15.5, 15.1 15.38 33, 36, 43 (Avg:39)
28 Ian Dreghorn Mountain Breeze Jack The Ripper 3 5:56:00 13.9, 13.0 13.48 28, 45, 49 (Avg:47)
22 Adam Kirk Whyneemah Khallira 4 6:07:00 19.5, 9.8 13.08 27, 45, 48 (Avg:46)
105 Peter Norman Tallaganda Downs Natifa 5 6:20:00 13.1, 12.1 12.63 40, 45, 48 (Avg:46)
121 Marita Rifai Tuldar Slingshot 6 6:31:00 13.7, 11.1 12.28 35, 42, 51 (Avg:46)
103 Heidi Wade Yinbilliko Dixey Chick Widthdrawn L2 0:00:00 - - 36, 48, 58 (Avg:53)
38 Steve Brisbane Whyneemah Khezebb Widthdrawn L1 0:00:00 - - 36, 46 (Avg:46)
Middleweight
104 Jessica Drain-Shepheard Maloo 1 (BC) 4:24:00 17.6, 18.7 18.18 40, 46, 45 (Avg:45)
107 Jenny Shepheard Currowan Danny 1 4:24:00 17.6, 18.7 18.18 42, 36, 46 (Avg:41)
33 Bev Turner Shazzam 3 5:08:00 17.0, 14.3 15.58 60, 45, 52 (Avg:48)
9 Clare Feary Double TT It ' n' Abit 4 5:12:00 15.2, 15.4 15.38 33, 38, 42 (Avg:40)
21 Ava Pellizzari Zzariava Valentino 5 6:19:00 13.1, 12.2 12.66 33, 40, 54 (Avg:47)
126 Mitchell Ravallion Danjera Montana 6 6:20:00 13.1, 12.1 12.63 32, 37, 38 (Avg:37)
106 Mathew Broome Jezabelle Sweet Dreams 7 6:31:00 12.5, 11.9 12.28 39, 41, 42 (Avg:41)
111 Emily Streckfuss Webbs Creek Starlight 7 6:31:00 12.6, 11.9 12.28 31, 36, 42 (Avg:39)
47 Ian Burns Miss B Havin 9 7:04:00 11.4, 11.2 11.32 38, 42, 48 (Avg:45)
41 David Player Ryton Pipes of Peace 9 7:04:00 11.4, 11.2 11.32 28, 36, 42 (Avg:39)
37 Fiona Meller Keldon Park Sophena 11 7:29:00 10.6, 10.7 10.69 36, 46, 47 (Avg:46)
114 Bruce Carter Dasharm Zayesha 12 7:58:00 11.1, 9.1 10.04 37, 44, 51 (Avg:47)
127 Jolene Cole Kurrajong Unique 12 7:58:00 9.8, 10.2 10.04 25, 45, 55 (Avg:50)
16 Rebecca Hogan Delrain Beersheba Heart Rate L2 0:00:00 13.1, 12.2 - 38, 45, 62 (Avg:53)
25 Julie Wright Regency Park Beau Gest Lame L2 0:00:00 13.7, 10.9 - 31, 41, 48 (Avg:44)
Lightweight
44 Amanda Apperley Harmere Kalila 1 (BC) 4:38:00 19.6, 15.3 17.27 32, 39, 42 (Avg:40)
17 Emma Broome Raymar Kaleb 2 5:56:00 13.6, 13.3 13.48 33, 41, 48 (Avg:44)
31 Vanessa Hamilton Zakiyah 3 6:15:00 12.6, 12.9 12.80 42, 43, 55 (Avg:49)
122 Shelly Ison Aloha Fabian 4 6:20:00 13.1, 12.1 12.63 40, 42, 48 (Avg:45)
120 Vetea Facchini Trigger 5 6:40:00 12.5, 11.4 12.00 29, 36, 46 (Avg:41)
118 April Newman Tarnette 6 7:14:00 12.4, 9.9 11.06 33, 39, 44 (Avg:41)
20 Robin Young Razorback Kadance 7 7:17:00 11.9, 10.1 10.98 30, 42, 48 (Avg:45)
6 Dody Sinfield Jewkes 8 7:29:00 10.6, 10.7 10.69 31, 36, 34 (Avg:35)
4 Jo Carrick Barinya Wokari 9 7:58:00 11.1, 9.1 10.04 32, 37, 53 (Avg:45)
35 Vicki Mathew Penwisk Sharmarra 10 8:22:00 9.8, 9.3 9.56 27, 36, 44 (Avg:40)
24 Sally Fenner Cherox Aladdin Widthdrawn L1 0:00:00 - - 30, 39 (Avg:39)
102 Elaine Kirby Excessabelle Widthdrawn L1 0:00:00 - - 29, 35 (Avg:35)
Junior
23 Carli Facchini Yinbilliko Argente Buck 1 (BC) 6:20:00 12.6, 12.5 12.63 34, 42, 49 (Avg:45)
45 Georgia Curry Macquarie Park Banjo 2 7:17:00 12.4, 9.8 10.98 35, 44, 55 (Avg:49)
50 Maddison Wade Yinbilliko Shaka Zulu Lame L1 0:00:00 12.6 - 30, 44 (Avg:44)